createdAt,value
2022-11-02T00:00:27.714Z,52.77
2022-11-02T00:01:09.182Z,53.31
2022-11-02T00:01:46.339Z,53.14
2022-11-02T00:02:18.657Z,52.90
2022-11-02T00:02:51.009Z,53.06
2022-11-02T00:03:25.793Z,53.22
2022-11-02T00:03:58.001Z,52.74
2022-11-02T00:04:30.075Z,53.16
2022-11-02T00:05:02.189Z,53.00
2022-11-02T00:05:36.951Z,52.89
2022-11-02T00:06:09.059Z,53.02
2022-11-02T00:06:41.464Z,53.14
2022-11-02T00:07:18.738Z,52.74
2022-11-02T00:07:51.316Z,52.67
2022-11-02T00:08:23.377Z,52.72
2022-11-02T00:08:58.033Z,52.98
2022-11-02T00:09:30.089Z,52.44
2022-11-02T00:10:02.313Z,52.83
2022-11-02T00:10:37.078Z,52.93
2022-11-02T00:11:09.267Z,52.20
2022-11-02T00:11:41.865Z,52.17
2022-11-02T00:12:13.953Z,52.41
2022-11-02T00:12:48.889Z,52.24
2022-11-02T00:13:21.021Z,52.42
2022-11-02T00:13:53.116Z,52.65
2022-11-02T00:14:28.055Z,52.48
2022-11-02T00:15:00.159Z,52.30
2022-11-02T00:15:36.462Z,51.92
2022-11-02T00:16:14.777Z,52.37
2022-11-02T00:16:47.148Z,51.67
2022-11-02T00:17:19.276Z,51.60
2022-11-02T00:17:58.319Z,51.77
2022-11-02T00:18:30.956Z,51.82
2022-11-02T00:19:06.906Z,51.90
2022-11-02T00:19:38.999Z,51.41
2022-11-02T00:20:14.310Z,51.59
2022-11-02T00:20:49.054Z,51.98
2022-11-02T00:21:21.972Z,51.53
2022-11-02T00:21:55.758Z,51.94
2022-11-02T00:22:34.020Z,51.41
2022-11-02T00:23:07.980Z,51.72
2022-11-02T00:23:41.668Z,51.26
2022-11-02T00:24:16.429Z,51.60
2022-11-02T00:24:48.509Z,51.37
2022-11-02T00:25:23.800Z,51.34
2022-11-02T00:25:58.695Z,51.43
2022-11-02T00:26:38.808Z,51.15
2022-11-02T00:27:11.528Z,51.46
2022-11-02T00:27:43.760Z,51.27
2022-11-02T00:28:19.250Z,51.39
2022-11-02T00:28:51.606Z,51.70
2022-11-02T00:29:24.455Z,51.30
2022-11-02T00:29:59.233Z,51.23
2022-11-02T00:30:31.339Z,51.16
2022-11-02T00:31:03.598Z,51.18
2022-11-02T00:31:38.362Z,51.42
2022-11-02T00:32:10.449Z,51.53
2022-11-02T00:32:42.707Z,51.23
2022-11-02T00:33:17.384Z,51.41
2022-11-02T00:33:49.621Z,51.05
2022-11-02T00:34:21.752Z,50.99
2022-11-02T00:34:56.404Z,51.08
2022-11-02T00:35:28.717Z,51.10
2022-11-02T00:36:00.842Z,51.12
2022-11-02T00:36:36.804Z,51.10
2022-11-02T00:37:08.867Z,51.25
2022-11-02T00:37:43.633Z,51.35
2022-11-02T00:38:18.426Z,51.15
2022-11-02T00:38:50.802Z,51.15
2022-11-02T00:39:24.286Z,51.12
2022-11-02T00:39:58.941Z,51.12
2022-11-02T00:40:31.047Z,51.14
2022-11-02T00:41:03.226Z,50.89
2022-11-02T00:41:37.924Z,51.20
2022-11-02T00:42:10.179Z,51.05
2022-11-02T00:42:42.275Z,50.83
2022-11-02T00:43:14.520Z,51.13
2022-11-02T00:43:49.200Z,51.16
2022-11-02T00:44:21.263Z,51.16
2022-11-02T00:44:53.384Z,51.32
2022-11-02T00:45:28.233Z,50.98
2022-11-02T00:46:01.098Z,51.08
2022-11-02T00:46:33.181Z,50.95
2022-11-02T00:47:07.962Z,51.11
2022-11-02T00:47:40.202Z,51.17
2022-11-02T00:48:12.279Z,51.21
2022-11-02T00:48:47.189Z,51.11
2022-11-02T00:49:19.298Z,51.21
2022-11-02T00:49:51.580Z,50.91
2022-11-02T00:50:26.269Z,51.14
2022-11-02T00:50:58.356Z,51.04
2022-11-02T00:51:33.612Z,51.27
2022-11-02T00:52:09.066Z,51.31
2022-11-02T00:52:43.850Z,50.91
2022-11-02T00:53:16.076Z,51.44
2022-11-02T00:53:58.490Z,51.19
2022-11-02T00:54:31.030Z,51.20
2022-11-02T00:55:03.237Z,51.20
2022-11-02T00:55:38.245Z,51.11
2022-11-02T00:56:10.724Z,50.96
2022-11-02T00:56:42.812Z,51.31
2022-11-02T00:57:17.475Z,50.99
2022-11-02T00:57:49.754Z,51.02
2022-11-02T00:58:22.069Z,51.52
2022-11-02T00:58:58.431Z,51.36
2022-11-02T00:59:30.532Z,51.11
2022-11-02T01:00:02.881Z,51.60
2022-11-02T01:00:37.546Z,51.10
2022-11-02T01:01:09.758Z,51.21
2022-11-02T01:01:47.377Z,51.32
2022-11-02T01:02:22.281Z,51.37
2022-11-02T01:02:54.600Z,51.46
2022-11-02T01:03:26.674Z,51.28
2022-11-02T01:04:01.803Z,51.57
2022-11-02T01:04:34.285Z,51.63
2022-11-02T01:05:08.645Z,51.54
2022-11-02T01:05:43.318Z,51.70
2022-11-02T01:06:16.107Z,51.56
2022-11-02T01:06:48.205Z,51.55
2022-11-02T01:07:22.981Z,51.59
2022-11-02T01:07:57.740Z,51.55
2022-11-02T01:08:29.819Z,51.31
2022-11-02T01:09:06.520Z,51.27
2022-11-02T01:09:38.664Z,51.15
2022-11-02T01:10:11.658Z,51.52
2022-11-02T01:10:48.412Z,51.23
2022-11-02T01:11:23.875Z,50.96
2022-11-02T01:11:56.521Z,51.48
2022-11-02T01:12:31.190Z,51.43
2022-11-02T01:13:03.392Z,51.50
2022-11-02T01:13:35.469Z,51.27
2022-11-02T01:14:10.408Z,51.35
2022-11-02T01:14:42.566Z,51.37
2022-11-02T01:15:14.735Z,51.27
2022-11-02T01:15:49.380Z,50.90
2022-11-02T01:16:21.538Z,51.30
2022-11-02T01:16:54.749Z,50.93
2022-11-02T01:17:27.004Z,51.10
2022-11-02T01:18:01.981Z,51.42
2022-11-02T01:18:34.543Z,51.16
2022-11-02T01:19:07.053Z,51.27
2022-11-02T01:19:41.727Z,50.99
2022-11-02T01:20:14.082Z,51.53
2022-11-02T01:20:46.178Z,51.09
2022-11-02T01:21:20.835Z,51.15
2022-11-02T01:21:52.915Z,51.24
2022-11-02T01:22:25.358Z,51.52
2022-11-02T01:23:24.099Z,51.33
2022-11-02T01:23:58.779Z,51.28
2022-11-02T01:24:30.877Z,51.52
2022-11-02T01:25:06.263Z,51.46
2022-11-02T01:25:38.345Z,51.32
2022-11-02T01:26:11.988Z,51.54
2022-11-02T01:26:48.239Z,51.60
2022-11-02T01:27:20.325Z,51.76
2022-11-02T01:27:55.048Z,51.87
2022-11-02T01:28:27.256Z,51.80
2022-11-02T01:28:59.455Z,51.85
2022-11-02T01:29:31.551Z,52.03
2022-11-02T01:30:07.826Z,51.82
2022-11-02T01:30:41.225Z,51.99
2022-11-02T01:31:13.427Z,51.74
2022-11-02T01:31:48.709Z,51.65
2022-11-02T01:32:22.467Z,51.84
2022-11-02T01:32:54.553Z,52.07
2022-11-02T01:33:29.378Z,52.19
2022-11-02T01:34:01.585Z,52.07
2022-11-02T01:34:33.653Z,52.06
2022-11-02T01:35:08.749Z,51.93
2022-11-02T01:35:41.120Z,52.23
2022-11-02T01:36:14.930Z,52.17
2022-11-02T01:36:49.961Z,52.32
2022-11-02T01:37:22.381Z,52.30
2022-11-02T01:37:54.476Z,52.61
2022-11-02T01:38:29.139Z,52.42
2022-11-02T01:39:04.355Z,52.40
2022-11-02T01:39:36.481Z,52.72
2022-11-02T01:40:12.559Z,52.37
2022-11-02T01:40:44.648Z,52.71
2022-11-02T01:41:17.595Z,52.71
2022-11-02T01:41:55.428Z,52.56
2022-11-02T01:42:28.836Z,52.69
2022-11-02T01:43:01.775Z,52.61
2022-11-02T01:43:38.624Z,52.70
2022-11-02T01:44:28.854Z,52.48
2022-11-02T01:45:03.541Z,52.61
2022-11-02T01:45:35.751Z,52.82
2022-11-02T01:46:16.972Z,52.76
2022-11-02T01:46:51.699Z,52.76
2022-11-02T01:47:27.112Z,52.93
2022-11-02T01:48:02.026Z,52.81
2022-11-02T01:48:36.795Z,52.74
2022-11-02T01:49:17.750Z,52.47
2022-11-02T01:49:56.497Z,52.87
2022-11-02T01:50:28.780Z,52.44
2022-11-02T01:51:05.832Z,52.65
2022-11-02T01:51:44.389Z,52.61
2022-11-02T01:52:20.439Z,52.75
2022-11-02T01:52:52.910Z,52.60
2022-11-02T01:53:27.608Z,52.75
2022-11-02T01:54:08.779Z,52.62
2022-11-02T01:54:44.767Z,52.62
2022-11-02T01:55:23.295Z,52.64
2022-11-02T01:55:55.964Z,52.78
2022-11-02T01:56:31.883Z,53.13
2022-11-02T01:57:09.725Z,52.93
2022-11-02T01:57:46.934Z,52.57
2022-11-02T01:58:19.164Z,52.85
2022-11-02T01:58:59.851Z,52.73
2022-11-02T01:59:37.184Z,52.82
2022-11-02T02:00:12.737Z,52.85
2022-11-02T02:00:50.165Z,52.79
2022-11-02T02:01:22.529Z,52.71
2022-11-02T02:01:54.817Z,52.87
2022-11-02T02:02:28.419Z,52.58
2022-11-02T02:03:08.332Z,52.58
2022-11-02T02:03:43.597Z,52.78
2022-11-02T02:04:16.026Z,52.85
2022-11-02T02:04:55.479Z,52.65
2022-11-02T02:05:31.085Z,52.36
2022-11-02T02:06:09.165Z,52.94
2022-11-02T02:06:44.885Z,52.71
2022-11-02T02:07:18.254Z,52.63
2022-11-02T02:07:51.371Z,52.55
2022-11-02T02:08:28.080Z,52.85
2022-11-02T02:09:07.465Z,52.56
2022-11-02T02:09:39.643Z,52.59
2022-11-02T02:10:14.648Z,52.87
2022-11-02T02:10:46.757Z,52.54
2022-11-02T02:11:27.306Z,52.69
2022-11-02T02:11:59.372Z,52.63
2022-11-02T02:12:35.585Z,52.67
2022-11-02T02:13:08.051Z,52.60
2022-11-02T02:13:40.166Z,52.83
2022-11-02T02:14:17.263Z,52.67
2022-11-02T02:14:53.918Z,52.59
2022-11-02T02:15:44.092Z,52.72
2022-11-02T02:16:29.889Z,52.82
2022-11-02T02:17:21.147Z,52.73
2022-11-02T02:18:03.839Z,52.80
2022-11-02T02:18:43.291Z,52.72
2022-11-02T02:19:28.209Z,52.81
2022-11-02T02:20:10.868Z,52.61
2022-11-02T02:21:02.669Z,52.82
2022-11-02T02:21:46.237Z,52.80
2022-11-02T02:23:04.489Z,52.88
2022-11-02T02:24:10.294Z,53.03
2022-11-02T02:24:54.828Z,52.96
2022-11-02T02:25:45.602Z,53.06
2022-11-02T02:26:50.521Z,53.00
2022-11-02T02:27:30.286Z,53.24
2022-11-02T02:28:22.236Z,53.19
2022-11-02T02:28:59.314Z,53.55
2022-11-02T02:29:49.336Z,52.96
2022-11-02T02:30:21.739Z,53.32
2022-11-02T02:30:59.165Z,53.26
2022-11-02T02:31:39.589Z,53.37
2022-11-02T02:32:13.960Z,53.09
2022-11-02T02:32:52.556Z,53.66
2022-11-02T02:33:34.689Z,53.38
2022-11-02T02:34:12.913Z,53.07
2022-11-02T02:34:51.963Z,53.05
2022-11-02T02:35:31.463Z,53.55
2022-11-02T02:36:12.042Z,53.20
2022-11-02T02:37:45.854Z,53.08
2022-11-02T02:38:25.413Z,53.06
2022-11-02T02:39:03.586Z,53.37
2022-11-02T02:39:45.015Z,53.56
2022-11-02T02:40:22.129Z,53.41
2022-11-02T02:40:59.986Z,53.37
2022-11-02T02:41:41.917Z,53.28
2022-11-02T02:42:20.131Z,52.98
2022-11-02T02:42:57.092Z,53.29
2022-11-02T02:43:39.714Z,53.52
2022-11-02T02:44:16.439Z,53.13
2022-11-02T02:44:58.896Z,53.19
2022-11-02T02:45:39.179Z,53.47
2022-11-02T02:46:19.088Z,53.36
2022-11-02T02:46:56.928Z,52.98
2022-11-02T02:47:36.330Z,53.15
2022-11-02T02:48:14.890Z,53.09
2022-11-02T02:48:48.914Z,53.05
2022-11-02T02:49:29.099Z,53.47
2022-11-02T02:50:06.929Z,53.03
2022-11-02T02:50:45.181Z,53.28
2022-11-02T02:51:25.792Z,53.35
2022-11-02T02:52:00.644Z,53.31
2022-11-02T02:52:34.952Z,53.42
2022-11-02T02:53:11.035Z,53.52
2022-11-02T02:53:47.546Z,53.60
2022-11-02T02:54:26.323Z,53.32
2022-11-02T02:55:03.745Z,53.48
2022-11-02T02:55:41.454Z,53.43
2022-11-02T02:56:16.420Z,53.36
2022-11-02T02:56:54.549Z,53.31
2022-11-02T02:57:30.837Z,53.47
2022-11-02T02:58:05.001Z,53.17
2022-11-02T02:58:48.066Z,53.64
2022-11-02T02:59:24.664Z,53.12
2022-11-02T02:59:56.854Z,53.32
2022-11-02T03:00:33.273Z,53.42
2022-11-02T03:01:06.907Z,53.21
2022-11-02T03:01:44.383Z,53.54
2022-11-02T03:02:24.078Z,53.25
2022-11-02T03:03:01.466Z,53.39
2022-11-02T03:03:35.160Z,53.59
2022-11-02T03:04:14.449Z,53.75
2022-11-02T03:04:46.530Z,53.54
2022-11-02T03:05:26.608Z,53.50
2022-11-02T03:06:07.948Z,53.37
2022-11-02T03:06:45.393Z,53.40
2022-11-02T03:07:23.806Z,53.86
2022-11-02T03:08:03.471Z,53.60
2022-11-02T03:08:38.028Z,53.63
2022-11-02T03:09:21.573Z,53.73
2022-11-02T03:10:05.954Z,53.95
2022-11-02T03:10:49.428Z,53.99
2022-11-02T03:11:23.470Z,53.90
2022-11-02T03:12:09.297Z,53.53
2022-11-02T03:12:55.658Z,54.09
2022-11-02T03:13:39.005Z,54.14
2022-11-02T03:14:27.313Z,53.65
2022-11-02T03:15:10.516Z,53.65
2022-11-02T03:15:49.381Z,53.91
2022-11-02T03:16:41.767Z,53.64
2022-11-02T03:17:16.978Z,54.14
2022-11-02T03:18:03.775Z,53.98
2022-11-02T03:18:49.986Z,54.04
2022-11-02T03:19:30.820Z,54.10
2022-11-02T03:20:12.022Z,53.82
2022-11-02T03:21:01.230Z,54.08
2022-11-02T03:21:40.689Z,54.31
2022-11-02T03:22:33.296Z,54.19
2022-11-02T03:23:16.688Z,54.25
2022-11-02T03:23:55.722Z,54.11
2022-11-02T03:24:35.926Z,54.33
2022-11-02T03:25:11.052Z,53.92
2022-11-02T03:25:56.213Z,54.14
2022-11-02T03:26:34.654Z,54.04
2022-11-02T03:27:18.857Z,54.14
2022-11-02T03:27:58.823Z,54.28
2022-11-02T03:28:43.181Z,53.89
2022-11-02T03:29:21.808Z,54.39
2022-11-02T03:30:04.341Z,54.41
2022-11-02T03:30:42.874Z,54.30
2022-11-02T03:31:25.152Z,54.02
2022-11-02T03:32:01.001Z,54.46
2022-11-02T03:32:39.709Z,54.22
2022-11-02T03:33:22.400Z,54.27
2022-11-02T03:33:59.956Z,54.11
2022-11-02T03:34:37.816Z,54.09
2022-11-02T03:35:20.453Z,54.36
2022-11-02T03:36:00.170Z,54.45
2022-11-02T03:36:37.863Z,54.05
2022-11-02T03:37:19.634Z,54.16
2022-11-02T03:37:56.574Z,54.25
2022-11-02T03:38:38.068Z,54.28
2022-11-02T03:39:13.963Z,54.52
2022-11-02T03:39:49.280Z,54.35
2022-11-02T03:40:28.855Z,54.28
2022-11-02T03:41:03.421Z,54.20
2022-11-02T03:41:38.000Z,54.12
2022-11-02T03:42:16.573Z,54.32
2022-11-02T03:42:50.923Z,54.09
2022-11-02T03:43:25.212Z,54.37
2022-11-02T03:44:07.106Z,54.42
2022-11-02T03:44:41.982Z,54.70
2022-11-02T03:45:18.974Z,54.41
2022-11-02T03:45:57.817Z,54.75
2022-11-02T03:46:34.350Z,54.77
2022-11-02T03:47:10.989Z,54.52
2022-11-02T03:47:46.973Z,54.23
2022-11-02T03:48:24.677Z,54.34
2022-11-02T03:48:57.502Z,54.45
2022-11-02T03:49:31.815Z,54.72
2022-11-02T03:50:08.980Z,54.34
2022-11-02T03:50:52.553Z,54.59
2022-11-02T03:51:28.921Z,54.52
2022-11-02T03:52:09.061Z,54.54
2022-11-02T03:52:45.936Z,54.53
2022-11-02T03:53:25.712Z,54.47
2022-11-02T03:54:06.868Z,54.70
2022-11-02T03:54:43.848Z,54.57
2022-11-02T03:55:23.280Z,54.69
2022-11-02T03:56:00.642Z,54.30
2022-11-02T03:56:38.673Z,54.42
2022-11-02T03:57:19.119Z,54.67
2022-11-02T03:57:52.906Z,54.89
2022-11-02T03:58:30.377Z,54.55
2022-11-02T03:59:05.513Z,54.67
2022-11-02T03:59:37.988Z,54.88
2022-11-02T04:00:15.798Z,54.40
2022-11-02T04:00:57.408Z,54.92
2022-11-02T04:01:31.758Z,54.45
2022-11-02T04:02:04.523Z,54.59
2022-11-02T04:02:39.025Z,54.41
2022-11-02T04:03:15.695Z,54.44
2022-11-02T04:03:50.150Z,54.34
2022-11-02T04:04:23.502Z,54.82
2022-11-02T04:04:58.816Z,54.30
2022-11-02T04:05:33.028Z,54.63
2022-11-02T04:06:09.157Z,54.26
2022-11-02T04:06:45.656Z,54.49
2022-11-02T04:07:22.337Z,54.69
2022-11-02T04:08:11.186Z,54.48
2022-11-02T04:08:49.446Z,54.29
2022-11-02T04:09:24.576Z,54.55
2022-11-02T04:09:56.923Z,54.25
2022-11-02T04:10:31.613Z,54.64
2022-11-02T04:11:18.888Z,54.25
2022-11-02T04:12:07.313Z,54.29
2022-11-02T04:12:54.515Z,54.30
2022-11-02T04:13:41.680Z,54.61
2022-11-02T04:14:28.795Z,54.74
2022-11-02T04:15:02.449Z,54.39
2022-11-02T04:15:40.289Z,54.87
2022-11-02T04:16:12.932Z,54.38
2022-11-02T04:16:46.554Z,54.20
2022-11-02T04:17:45.174Z,54.43
2022-11-02T04:18:35.229Z,54.70
2022-11-02T04:19:24.492Z,54.71
2022-11-02T04:20:00.741Z,54.47
2022-11-02T04:20:32.866Z,54.65
2022-11-02T04:21:05.597Z,54.21
2022-11-02T04:21:37.814Z,54.58
2022-11-02T04:22:25.231Z,54.41
2022-11-02T04:23:22.719Z,54.43
2022-11-02T04:24:10.931Z,54.67
2022-11-02T04:24:58.221Z,54.25
2022-11-02T04:25:33.434Z,54.46
2022-11-02T04:26:19.643Z,54.72
2022-11-02T04:26:51.779Z,54.43
2022-11-02T04:27:26.497Z,54.28
2022-11-02T04:28:07.895Z,54.22
2022-11-02T04:28:45.650Z,54.64
2022-11-02T04:29:17.784Z,54.58
2022-11-02T04:29:51.217Z,54.72
2022-11-02T04:30:27.279Z,54.55
2022-11-02T04:31:03.491Z,54.52
2022-11-02T04:31:40.975Z,54.38
2022-11-02T04:32:35.814Z,54.67
2022-11-02T04:33:24.127Z,54.45
2022-11-02T04:34:01.593Z,54.40
2022-11-02T04:34:33.681Z,54.67
2022-11-02T04:35:07.367Z,54.62
2022-11-02T04:35:42.393Z,54.65
2022-11-02T04:36:14.990Z,54.53
2022-11-02T04:36:48.190Z,54.67
2022-11-02T04:37:35.188Z,54.70
2022-11-02T04:38:22.550Z,54.75
2022-11-02T04:38:55.108Z,54.68
2022-11-02T04:39:33.116Z,54.62
2022-11-02T04:40:06.175Z,54.54
2022-11-02T04:40:38.354Z,54.54
2022-11-02T04:41:28.021Z,54.52
2022-11-02T04:42:02.883Z,54.61
2022-11-02T04:42:40.348Z,54.55
2022-11-02T04:43:15.333Z,54.57
2022-11-02T04:43:47.671Z,54.59
2022-11-02T04:44:24.846Z,54.82
2022-11-02T04:45:13.047Z,54.80
2022-11-02T04:45:45.366Z,54.76
2022-11-02T04:46:20.502Z,55.04
2022-11-02T04:46:55.960Z,54.87
2022-11-02T04:47:31.710Z,54.92
2022-11-02T04:48:05.884Z,54.94
2022-11-02T04:48:41.206Z,54.75
2022-11-02T04:49:14.429Z,55.07
2022-11-02T04:49:47.292Z,55.01
2022-11-02T04:50:25.306Z,55.10
2022-11-02T04:50:58.352Z,54.83
2022-11-02T04:51:31.674Z,55.17
2022-11-02T04:52:06.692Z,55.18
2022-11-02T04:52:40.790Z,54.83
2022-11-02T04:53:13.837Z,55.24
2022-11-02T04:53:49.276Z,55.12
2022-11-02T04:54:21.978Z,55.37
2022-11-02T04:54:59.165Z,55.40
2022-11-02T04:55:34.729Z,55.16
2022-11-02T04:56:07.666Z,55.40
2022-11-02T04:56:39.767Z,55.16
2022-11-02T04:57:14.639Z,55.36
2022-11-02T04:57:48.365Z,54.92
2022-11-02T04:58:20.436Z,55.04
2022-11-02T04:58:57.151Z,54.90
2022-11-02T04:59:29.299Z,55.16
2022-11-02T05:00:01.608Z,55.38
2022-11-02T05:00:38.439Z,55.34
2022-11-02T05:01:15.356Z,55.25
2022-11-02T05:01:51.506Z,55.08
2022-11-02T05:02:26.529Z,55.42
2022-11-02T05:02:59.258Z,55.42
2022-11-02T05:03:31.959Z,55.29
2022-11-02T05:04:06.921Z,55.28
2022-11-02T05:04:40.692Z,55.27
2022-11-02T05:05:13.716Z,55.35
2022-11-02T05:05:47.126Z,55.75
2022-11-02T05:06:23.632Z,55.95
2022-11-02T05:07:01.089Z,55.72
2022-11-02T05:07:33.898Z,56.15
2022-11-02T05:08:06.856Z,55.87
2022-11-02T05:08:42.275Z,55.57
2022-11-02T05:09:14.373Z,56.22
2022-11-02T05:09:49.833Z,55.88
2022-11-02T05:10:25.376Z,56.27
2022-11-02T05:10:59.681Z,55.83
2022-11-02T05:11:33.133Z,56.07
2022-11-02T05:12:08.586Z,56.23
2022-11-02T05:12:40.852Z,56.00
2022-11-02T05:13:12.941Z,56.21
2022-11-02T05:13:47.623Z,55.63
2022-11-02T05:14:19.753Z,55.86
2022-11-02T05:14:51.851Z,55.86
2022-11-02T05:15:24.053Z,55.89
2022-11-02T05:15:59.843Z,55.66
2022-11-02T05:16:31.978Z,55.88
2022-11-02T05:17:06.653Z,55.62
2022-11-02T05:17:43.277Z,55.58
2022-11-02T05:18:19.217Z,55.73
2022-11-02T05:18:52.318Z,55.86
2022-11-02T05:19:25.597Z,55.46
2022-11-02T05:20:00.771Z,55.63
2022-11-02T05:20:34.159Z,55.55
2022-11-02T05:21:06.443Z,55.38
2022-11-02T05:21:41.189Z,55.58
2022-11-02T05:22:13.445Z,55.36
2022-11-02T05:22:45.603Z,55.51
2022-11-02T05:23:22.549Z,55.50
2022-11-02T05:23:54.686Z,55.19
2022-11-02T05:24:26.776Z,54.67
2022-11-02T05:25:01.514Z,54.68
2022-11-02T05:25:34.310Z,54.79
2022-11-02T05:26:09.216Z,54.91
2022-11-02T05:26:44.352Z,55.30
2022-11-02T05:27:16.582Z,55.30
2022-11-02T05:27:50.505Z,55.61
2022-11-02T05:28:27.627Z,55.49
2022-11-02T05:28:59.839Z,55.54
2022-11-02T05:29:31.973Z,55.37
2022-11-02T05:30:08.608Z,55.62
2022-11-02T05:30:40.658Z,55.22
2022-11-02T05:31:12.848Z,55.32
2022-11-02T05:31:47.606Z,55.00
2022-11-02T05:32:23.082Z,54.98
2022-11-02T05:32:56.475Z,55.37
2022-11-02T05:33:32.567Z,55.19
2022-11-02T05:34:09.824Z,55.31
2022-11-02T05:34:42.641Z,54.98
2022-11-02T05:35:18.403Z,55.06
2022-11-02T05:35:50.531Z,54.87
2022-11-02T05:36:22.704Z,54.90
2022-11-02T05:36:59.403Z,54.88
2022-11-02T05:37:31.501Z,55.04
2022-11-02T05:38:03.932Z,54.92
2022-11-02T05:39:11.615Z,54.52
2022-11-02T05:39:47.766Z,54.48
2022-11-02T05:40:25.038Z,54.58
2022-11-02T05:40:59.565Z,54.69
2022-11-02T05:41:35.150Z,54.30
2022-11-02T05:42:09.964Z,54.85
2022-11-02T05:42:42.047Z,54.52
2022-11-02T05:43:16.701Z,54.64
2022-11-02T05:43:52.049Z,54.89
2022-11-02T05:44:26.070Z,54.91
2022-11-02T05:44:59.404Z,54.76
2022-11-02T05:45:34.127Z,54.50
2022-11-02T05:46:06.204Z,54.67
2022-11-02T05:46:38.274Z,54.25
2022-11-02T05:47:13.145Z,54.56
2022-11-02T05:47:47.903Z,54.26
2022-11-02T05:48:20.812Z,54.27
2022-11-02T05:48:55.489Z,54.12
2022-11-02T05:49:27.586Z,54.54
2022-11-02T05:49:59.957Z,54.27
2022-11-02T05:50:34.673Z,54.31
2022-11-02T05:51:08.211Z,54.68
2022-11-02T05:51:42.917Z,54.41
2022-11-02T05:52:15.532Z,54.49
2022-11-02T05:52:48.011Z,54.59
2022-11-02T05:53:22.750Z,54.86
2022-11-02T05:53:54.886Z,54.73
2022-11-02T05:54:27.012Z,54.72
2022-11-02T05:55:01.848Z,54.79
2022-11-02T05:55:35.516Z,54.63
2022-11-02T05:56:08.619Z,54.71
2022-11-02T05:56:43.431Z,54.55
2022-11-02T05:57:17.205Z,54.78
2022-11-02T05:57:51.617Z,54.74
2022-11-02T05:58:26.452Z,55.15
2022-11-02T05:58:58.585Z,55.15
2022-11-02T05:59:30.697Z,54.90
2022-11-02T06:00:05.957Z,55.10
2022-11-02T06:00:44.407Z,55.13
2022-11-02T06:01:17.285Z,54.96
2022-11-02T06:01:52.042Z,55.38
2022-11-02T06:02:25.458Z,55.03
2022-11-02T06:03:00.412Z,55.07
2022-11-02T06:03:36.254Z,55.35
2022-11-02T06:04:08.600Z,55.42
2022-11-02T06:04:40.712Z,54.88
2022-11-02T06:05:15.599Z,55.23
2022-11-02T06:05:47.933Z,55.31
2022-11-02T06:06:22.626Z,54.96
2022-11-02T06:06:54.955Z,55.04
2022-11-02T06:07:27.121Z,55.08
2022-11-02T06:08:02.665Z,55.05
2022-11-02T06:08:36.082Z,54.78
2022-11-02T06:09:08.645Z,54.99
2022-11-02T06:09:43.313Z,55.13
2022-11-02T06:10:15.466Z,54.97
2022-11-02T06:10:48.886Z,55.11
2022-11-02T06:11:23.763Z,55.12
2022-11-02T06:11:56.707Z,54.96
2022-11-02T06:12:29.070Z,55.26
2022-11-02T06:13:05.608Z,54.88
2022-11-02T06:13:38.312Z,55.10
2022-11-02T06:14:10.679Z,55.47
2022-11-02T06:14:45.400Z,55.19
2022-11-02T06:15:17.584Z,54.96
2022-11-02T06:15:52.683Z,55.12
2022-11-02T06:16:24.852Z,55.33
2022-11-02T06:16:57.512Z,55.45
2022-11-02T06:17:32.345Z,55.14
2022-11-02T06:18:07.997Z,55.43
2022-11-02T06:18:40.159Z,55.07
2022-11-02T06:20:08.596Z,55.31
2022-11-02T06:20:40.689Z,55.10
2022-11-02T06:21:15.761Z,55.44
2022-11-02T06:21:48.636Z,55.39
2022-11-02T06:22:20.908Z,55.19
2022-11-02T06:22:55.615Z,55.34
2022-11-02T06:23:28.640Z,55.30
2022-11-02T06:24:01.070Z,55.23
2022-11-02T06:24:35.778Z,55.25
2022-11-02T06:25:09.392Z,55.31
2022-11-02T06:25:41.498Z,55.07
2022-11-02T06:26:16.177Z,55.29
2022-11-02T06:26:49.021Z,55.25
2022-11-02T06:27:21.099Z,55.33
2022-11-02T06:27:57.785Z,55.50
2022-11-02T06:28:35.241Z,55.42
2022-11-02T06:29:09.930Z,55.04
2022-11-02T06:29:42.045Z,55.13
2022-11-02T06:30:14.117Z,55.18
2022-11-02T06:30:46.272Z,55.34
2022-11-02T06:31:21.006Z,55.36
2022-11-02T06:31:53.131Z,55.30
2022-11-02T06:32:25.395Z,55.56
2022-11-02T06:33:03.121Z,55.53
2022-11-02T06:33:40.671Z,55.09
2022-11-02T06:34:15.430Z,55.29
2022-11-02T06:34:47.561Z,55.52
2022-11-02T06:35:21.641Z,55.28
2022-11-02T06:35:57.277Z,55.35
2022-11-02T06:36:29.365Z,55.31
2022-11-02T06:37:01.461Z,55.33
2022-11-02T06:37:34.727Z,55.03
2022-11-02T06:38:09.381Z,54.93
2022-11-02T06:38:42.207Z,55.10
2022-11-02T06:39:16.950Z,55.38
2022-11-02T06:39:49.157Z,54.87
2022-11-02T06:40:24.106Z,54.88
2022-11-02T06:41:03.627Z,54.99
2022-11-02T06:41:37.905Z,55.20
2022-11-02T06:42:10.314Z,54.80
2022-11-02T06:42:56.529Z,55.00
2022-11-02T06:43:38.548Z,55.20
2022-11-02T06:44:13.256Z,55.10
2022-11-02T06:44:45.384Z,54.75
2022-11-02T06:45:17.669Z,54.96
2022-11-02T06:45:52.370Z,54.61
2022-11-02T06:46:24.457Z,54.64
2022-11-02T06:46:56.585Z,54.91
2022-11-02T06:47:34.074Z,54.89
2022-11-02T06:48:06.225Z,54.56
2022-11-02T06:48:40.918Z,54.78
2022-11-02T06:49:15.636Z,54.85
2022-11-02T06:49:47.714Z,54.77
2022-11-02T06:50:19.895Z,54.53
2022-11-02T06:50:54.821Z,54.98
2022-11-02T06:51:26.912Z,54.71
2022-11-02T06:52:01.681Z,55.03
2022-11-02T06:52:33.965Z,54.75
2022-11-02T06:53:06.405Z,54.63
2022-11-02T06:53:41.386Z,54.85
2022-11-02T06:54:13.796Z,54.76
2022-11-02T06:54:45.880Z,54.87
2022-11-02T06:55:21.507Z,54.90
2022-11-02T06:55:54.229Z,54.92
2022-11-02T06:56:28.967Z,54.87
2022-11-02T06:57:01.115Z,55.08
2022-11-02T06:57:36.521Z,54.97
2022-11-02T06:58:11.257Z,54.71
2022-11-02T06:58:43.360Z,55.19
2022-11-02T06:59:18.027Z,54.90
2022-11-02T06:59:53.902Z,54.77
2022-11-02T07:00:26.425Z,54.63
2022-11-02T07:01:02.967Z,55.12
2022-11-02T07:01:35.670Z,54.93
2022-11-02T07:02:09.329Z,54.79
2022-11-02T07:02:44.142Z,55.07
2022-11-02T07:03:16.733Z,54.80
2022-11-02T10:48:12.547Z,46.95
2022-11-02T10:48:52.781Z,47.16
2022-11-02T10:49:50.372Z,46.76
2022-11-02T10:50:44.953Z,47.38
2022-11-02T10:51:22.049Z,47.20
2022-11-02T10:51:54.396Z,47.13
2022-11-02T10:52:35.005Z,47.05
2022-11-02T10:54:16.140Z,47.04
2022-11-02T10:54:54.709Z,46.74
2022-11-02T10:55:40.494Z,46.53
2022-11-02T10:56:20.419Z,46.64
2022-11-02T10:56:52.660Z,46.87
2022-11-02T10:57:26.423Z,46.37
2022-11-02T10:58:06.666Z,46.41
2022-11-02T10:58:44.207Z,46.64
2022-11-02T10:59:20.455Z,46.58
2022-11-02T11:00:23.143Z,46.12
2022-11-02T11:01:08.244Z,46.36
2022-11-02T11:01:46.289Z,45.99
2022-11-02T11:02:21.023Z,45.35
2022-11-02T11:03:10.741Z,44.77
2022-11-02T11:04:03.959Z,44.28
2022-11-02T11:04:36.210Z,43.21
2022-11-02T11:05:13.581Z,42.97
2022-11-02T11:06:03.073Z,41.99
2022-11-02T11:06:38.035Z,41.39
2022-11-02T11:07:16.120Z,40.83
2022-11-02T11:07:50.878Z,40.65
2022-11-02T11:08:37.718Z,39.77
2022-11-02T11:09:20.185Z,39.47
2022-11-02T11:09:55.251Z,39.03
2022-11-02T11:10:27.775Z,38.07
2022-11-02T11:11:18.048Z,37.51
2022-11-02T11:11:54.899Z,35.23
2022-11-02T11:12:35.544Z,35.96
2022-11-02T11:16:19.632Z,32.63
2022-11-02T11:19:51.861Z,31.48
2022-11-02T11:20:33.557Z,31.75
2022-11-02T11:21:09.948Z,31.34
2022-11-02T11:21:43.257Z,31.13
2022-11-02T11:22:28.658Z,28.95
2022-11-02T11:23:22.480Z,30.50
2022-11-02T11:24:19.205Z,28.76
2022-11-02T11:24:54.009Z,29.34
2022-11-02T11:25:28.424Z,29.49
2022-11-02T11:26:04.945Z,29.54
2022-11-02T11:26:37.040Z,28.79
2022-11-02T11:27:18.121Z,28.40
2022-11-02T11:27:54.580Z,28.54
2022-11-02T11:28:30.975Z,28.80
2022-11-02T11:29:05.676Z,28.31
2022-11-02T11:29:40.316Z,28.26
2022-11-02T11:30:54.072Z,28.00
2022-11-02T11:31:23.351Z,27.88
2022-11-02T11:31:55.558Z,27.98
2022-11-02T11:32:30.687Z,27.71
2022-11-02T11:33:08.471Z,27.60
2022-11-02T11:33:56.231Z,26.38
2022-11-02T11:34:34.242Z,26.95
2022-11-02T11:35:15.343Z,26.79
2022-11-02T11:35:51.079Z,25.97
2022-11-02T11:36:30.591Z,26.01
2022-11-02T11:37:09.989Z,26.06
2022-11-02T11:37:51.099Z,26.32
2022-11-02T11:38:26.913Z,25.68
2022-11-02T11:39:04.908Z,25.55
2022-11-02T11:39:39.262Z,26.01
2022-11-02T11:40:20.833Z,25.99
2022-11-02T11:40:55.138Z,25.59
2022-11-02T11:41:30.943Z,26.12
2022-11-02T11:42:05.509Z,26.14